Time;durP1;ratioP1;P1;durP2;ratioP2;P2;SDS_P1;SDS_P2;PMS_P1;PMS_P2;Temp;Humidity;BMP_temperature;BMP_pressure;BME280_temperature;BME280_humidity;BME280_pressure;Samples;Min_cycle;Max_cycle;Signal;HPM_P1;HPM_P2
2021/12/15 00:01:31;;;;;;;96.88;46.13;;;10.20;99.90;;;;;;5003508;28;20041;-73
2021/12/15 00:03:58;;;;;;;94.18;47.13;;;10.30;99.90;;;;;;5008715;28;20134;-74
2021/12/15 00:06:24;;;;;;;98.78;46.15;;;10.30;99.90;;;;;;4987661;28;20041;-74
2021/12/15 00:08:53;;;;;;;93.10;47.55;;;10.30;99.90;;;;;;5007227;28;20065;-74
2021/12/15 00:11:20;;;;;;;88.93;46.75;;;10.30;99.90;;;;;;5004911;28;20104;-74
2021/12/15 00:13:48;;;;;;;95.53;46.55;;;10.30;99.90;;;;;;5005764;28;20038;-74
2021/12/15 00:16:15;;;;;;;89.03;45.22;;;10.30;99.90;;;;;;5002909;28;20061;-74
2021/12/15 00:18:44;;;;;;;92.15;46.75;;;10.30;99.90;;;;;;5006527;28;20107;-74
2021/12/15 00:21:13;;;;;;;90.50;45.47;;;10.30;99.90;;;;;;5004585;28;20034;-74
2021/12/15 00:23:40;;;;;;;91.25;44.35;;;10.30;99.90;;;;;;5008655;28;20064;-74
2021/12/15 00:26:06;;;;;;;89.55;44.08;;;10.30;99.90;;;;;;5006838;28;20037;-74
2021/12/15 00:28:33;;;;;;;93.35;45.53;;;10.30;99.90;;;;;;5008328;28;20060;-74
2021/12/15 00:30:59;;;;;;;88.53;45.20;;;10.30;99.90;;;;;;5004052;28;20047;-73
2021/12/15 00:33:25;;;;;;;90.20;44.05;;;10.30;99.90;;;;;;5008223;28;20046;-74
2021/12/15 00:35:50;;;;;;;87.60;44.10;;;10.30;99.90;;;;;;5006601;28;20408;-74
2021/12/15 00:38:16;;;;;;;90.55;44.67;;;10.30;99.90;;;;;;5004308;28;20481;-74
2021/12/15 00:40:42;;;;;;;89.90;45.05;;;10.30;99.90;;;;;;5005401;28;20048;-74
2021/12/15 00:43:08;;;;;;;90.55;43.95;;;10.30;99.90;;;;;;5005702;28;20554;-73
2021/12/15 00:45:33;;;;;;;93.00;44.83;;;10.30;99.90;;;;;;5004973;28;20592;-73
2021/12/15 00:47:59;;;;;;;87.47;42.40;;;10.30;99.90;;;;;;5005319;28;20073;-74
2021/12/15 00:50:28;;;;;;;88.15;43.60;;;10.40;99.90;;;;;;5005673;28;20496;-74
2021/12/15 00:52:54;;;;;;;90.95;42.90;;;10.40;99.90;;;;;;5009070;28;20092;-74
2021/12/15 00:55:22;;;;;;;85.10;43.13;;;10.40;99.90;;;;;;5004831;28;20436;-74
2021/12/15 00:57:48;;;;;;;85.43;42.55;;;10.40;99.90;;;;;;5005290;28;20116;-74
2021/12/15 01:00:22;;;;;;;83.25;41.75;;;10.40;99.90;;;;;;5001918;28;20128;-74
2021/12/15 01:02:50;;;;;;;85.28;43.45;;;10.40;99.90;;;;;;5004176;28;20112;-74
2021/12/15 01:05:18;;;;;;;86.78;41.78;;;10.40;99.90;;;;;;5000172;28;20033;-74
2021/12/15 01:07:45;;;;;;;81.20;40.50;;;10.40;99.90;;;;;;5006090;28;20037;-74
2021/12/15 01:10:15;;;;;;;84.10;40.90;;;10.40;99.90;;;;;;5003265;28;20181;-74
2021/12/15 01:14:27;;;;;;;89.07;40.63;;;10.50;99.90;;;;;;5004023;28;20463;-74
2021/12/15 01:20:49;;;;;;;85.05;40.08;;;10.40;99.90;;;;;;5007190;28;20069;-74
2021/12/15 01:23:21;;;;;;;85.13;39.92;;;10.40;99.90;;;;;;5006073;28;20046;-74
2021/12/15 01:25:57;;;;;;;89.75;40.28;;;10.40;99.90;;;;;;5005207;28;20116;-73
2021/12/15 01:28:24;;;;;;;88.75;39.72;;;10.40;99.90;;;;;;5004484;28;20042;-74
2021/12/15 01:30:52;;;;;;;92.57;39.13;;;10.40;99.90;;;;;;5004296;28;20123;-74
2021/12/15 01:33:18;;;;;;;86.78;38.70;;;10.40;99.90;;;;;;5007394;28;20052;-74
2021/12/15 01:35:47;;;;;;;100.55;42.03;;;10.40;99.90;;;;;;5001954;28;20042;-74
2021/12/15 01:38:14;;;;;;;97.80;39.20;;;10.40;99.90;;;;;;5020705;28;20030;-74
2021/12/15 01:40:43;;;;;;;93.50;40.28;;;10.40;99.90;;;;;;5004380;28;20168;-73
2021/12/15 01:43:19;;;;;;;88.57;38.10;;;10.40;99.90;;;;;;5001203;28;20040;-74
2021/12/15 01:48:35;;;;;;;96.65;39.55;;;10.40;99.90;;;;;;5007025;28;20038;-74
2021/12/15 01:51:02;;;;;;;95.10;39.92;;;10.40;99.90;;;;;;5005609;28;20052;-74
2021/12/15 01:53:28;;;;;;;101.28;40.83;;;10.40;99.90;;;;;;5006316;28;20122;-74
2021/12/15 01:55:55;;;;;;;106.55;41.53;;;10.40;99.90;;;;;;5004335;28;20077;-73
2021/12/15 01:58:21;;;;;;;98.43;39.95;;;10.40;99.90;;;;;;5007718;28;20041;-74
2021/12/15 02:01:01;;;;;;;102.38;40.35;;;10.40;99.90;;;;;;5009098;28;20051;-74
2021/12/15 02:03:28;;;;;;;96.25;38.60;;;10.40;99.90;;;;;;5000471;28;20042;-74
2021/12/15 02:05:54;;;;;;;101.13;39.83;;;10.40;99.90;;;;;;5003855;28;20083;-74
2021/12/15 02:08:20;;;;;;;96.63;38.67;;;10.40;99.90;;;;;;4991051;28;20034;-74
2021/12/15 02:10:47;;;;;;;98.13;40.25;;;10.40;99.90;;;;;;5008235;28;20061;-73
2021/12/15 02:13:15;;;;;;;95.43;38.65;;;10.40;99.90;;;;;;5006899;28;20254;-73
2021/12/15 02:15:51;;;;;;;86.30;36.80;;;10.40;99.90;;;;;;5005452;28;20042;-74
2021/12/15 02:18:21;;;;;;;89.20;38.40;;;10.40;99.90;;;;;;5004431;28;20042;-74
2021/12/15 02:20:54;;;;;;;88.53;36.83;;;10.40;99.90;;;;;;5007172;28;20078;-73
2021/12/15 02:23:27;;;;;;;90.45;38.63;;;10.40;99.90;;;;;;5004223;28;20088;-73
2021/12/15 02:25:53;;;;;;;91.70;36.92;;;10.40;99.90;;;;;;5020585;28;20033;-73
2021/12/15 02:28:19;;;;;;;84.28;37.25;;;10.40;99.90;;;;;;5006737;28;20037;-74
2021/12/15 02:38:38;;;;;;;90.95;38.63;;;10.40;99.90;;;;;;5006105;28;20102;-74
2021/12/15 02:41:10;;;;;;;88.40;37.72;;;10.50;99.90;;;;;;5007705;28;20041;-74
2021/12/15 02:43:36;;;;;;;92.60;38.22;;;10.50;99.90;;;;;;5009203;28;20058;-73
2021/12/15 02:46:03;;;;;;;94.47;39.45;;;10.50;99.90;;;;;;5020632;28;20094;-73
2021/12/15 02:48:30;;;;;;;94.43;39.22;;;10.40;99.90;;;;;;5007143;28;20508;-73
2021/12/15 02:50:56;;;;;;;97.55;41.38;;;10.40;99.90;;;;;;5007889;28;20076;-74
2021/12/15 02:53:23;;;;;;;97.00;39.97;;;10.40;99.90;;;;;;5003092;28;20053;-73
2021/12/15 02:55:49;;;;;;;101.05;40.00;;;10.40;99.90;;;;;;5005476;28;20065;-74
2021/12/15 02:58:17;;;;;;;102.95;40.92;;;10.40;99.90;;;;;;5006093;28;20050;-74
2021/12/15 03:00:47;;;;;;;107.85;43.45;;;10.40;99.90;;;;;;5008699;28;20037;-74
2021/12/15 03:06:04;;;;;;;105.47;43.58;;;10.40;99.90;;;;;;5006529;28;20042;-74
2021/12/15 03:15:29;;;;;;;113.68;42.90;;;10.40;99.90;;;;;;5005463;28;20049;-74
2021/12/15 03:16:51;;;;;;;107.50;40.97;;;10.40;99.90;;;;;;4977458;28;20080;-74
2021/12/15 03:19:17;;;;;;;107.05;41.17;;;10.40;99.90;;;;;;4992779;28;20062;-74
2021/12/15 03:21:43;;;;;;;108.78;43.35;;;10.50;99.90;;;;;;5008007;28;20033;-74
2021/12/15 03:24:16;;;;;;;108.60;43.28;;;10.50;99.90;;;;;;5006433;28;20056;-74
2021/12/15 03:26:51;;;;;;;113.38;44.85;;;10.40;99.90;;;;;;5003009;28;20045;-74
2021/12/15 03:35:06;;;;;;;114.25;46.85;;;10.40;99.90;;;;;;5007679;28;20069;-73
2021/12/15 03:37:36;;;;;;;108.30;45.47;;;10.40;99.90;;;;;;5004428;28;20049;-74
2021/12/15 03:40:11;;;;;;;112.82;46.95;;;10.30;99.90;;;;;;5005310;28;20129;-74
2021/12/15 03:42:44;;;;;;;116.97;49.58;;;10.40;99.90;;;;;;5003827;28;20142;-74
2021/12/15 03:45:15;;;;;;;112.20;48.63;;;10.40;99.90;;;;;;5003228;28;20124;-74
2021/12/15 03:47:49;;;;;;;118.30;49.17;;;10.40;99.90;;;;;;5004511;28;20444;-73
2021/12/15 03:50:18;;;;;;;113.90;46.35;;;10.30;99.90;;;;;;5002893;28;20081;-74
2021/12/15 03:52:48;;;;;;;113.63;49.25;;;10.40;99.90;;;;;;4989868;28;20136;-74
2021/12/15 03:55:20;;;;;;;115.97;50.05;;;10.30;99.90;;;;;;5004434;28;20033;-74
2021/12/15 03:57:46;;;;;;;118.73;50.17;;;10.30;99.90;;;;;;5001715;28;20041;-74
2021/12/15 04:00:13;;;;;;;111.38;47.92;;;10.30;99.90;;;;;;5003543;28;20106;-74
2021/12/15 04:02:42;;;;;;;115.78;49.40;;;10.40;99.90;;;;;;4983102;28;20037;-74
2021/12/15 04:05:10;;;;;;;112.57;48.28;;;10.30;99.90;;;;;;5001709;28;20079;-74
2021/12/15 04:07:37;;;;;;;122.43;52.33;;;10.30;99.90;;;;;;4990865;28;20045;-74
2021/12/15 04:10:08;;;;;;;112.82;50.88;;;10.30;99.90;;;;;;5003714;28;20037;-73
2021/12/15 04:12:33;;;;;;;113.50;51.80;;;10.30;99.90;;;;;;5007613;28;20053;-74
2021/12/15 04:18:03;;;;;;;109.50;50.40;;;10.40;99.90;;;;;;4995214;28;20041;-74
2021/12/15 04:20:33;;;;;;;123.43;52.25;;;10.40;99.90;;;;;;4991958;28;20045;-74
2021/12/15 04:22:59;;;;;;;115.20;52.53;;;10.30;99.90;;;;;;4989969;28;20120;-74
2021/12/15 04:25:29;;;;;;;116.03;49.17;;;10.30;99.90;;;;;;5005430;28;20170;-73
2021/12/15 04:27:58;;;;;;;108.90;50.00;;;10.30;99.90;;;;;;5005039;28;20195;-74
2021/12/15 04:30:26;;;;;;;114.22;52.15;;;10.30;99.90;;;;;;5004752;28;20042;-74
2021/12/15 04:32:53;;;;;;;112.85;50.83;;;10.30;99.90;;;;;;5004749;28;20088;-74
2021/12/15 04:35:19;;;;;;;112.18;50.72;;;10.30;99.90;;;;;;5005193;28;20041;-74
2021/12/15 04:37:46;;;;;;;114.57;52.17;;;10.30;99.90;;;;;;5001000;28;20045;-74
2021/12/15 04:40:31;;;;;;;108.88;51.67;;;10.30;99.90;;;;;;5012585;28;20045;-74
2021/12/15 04:44:24;;;;;;;104.63;51.70;;;10.30;99.90;;;;;;5000547;28;20049;-75
2021/12/15 04:47:57;;;;;;;119.67;50.27;;;10.30;99.90;;;;;;4950216;28;20099;-75
2021/12/15 04:55:48;;;;;;;112.25;51.00;;;10.30;99.90;;;;;;4900785;29;20062;-75
2021/12/15 05:04:21;;;;;;;110.47;51.08;;;10.30;99.90;;;;;;4845974;29;20053;-75
2021/12/15 05:08:02;;;;;;;109.50;51.40;;;10.30;99.90;;;;;;4843053;29;20049;-75
2021/12/15 05:10:45;;;;;;;111.65;51.17;;;10.20;99.90;;;;;;4821128;29;20057;-75
2021/12/15 05:14:04;;;;;;;105.57;52.55;;;10.30;99.90;;;;;;4882583;29;20044;-75
2021/12/15 05:17:20;;;;;;;105.65;54.22;;;10.30;99.90;;;;;;4884525;29;20093;-75
2021/12/15 05:20:22;;;;;;;113.20;53.53;;;10.30;99.90;;;;;;4894709;29;20040;-75
2021/12/15 05:23:33;;;;;;;109.15;53.15;;;10.30;99.90;;;;;;4920536;29;20046;-75
2021/12/15 05:26:53;;;;;;;113.43;53.63;;;10.30;99.90;;;;;;4951583;28;20054;-75
2021/12/15 05:29:50;;;;;;;109.38;52.22;;;10.30;99.90;;;;;;5003494;28;20049;-75
2021/12/15 05:33:29;;;;;;;107.68;53.78;;;10.30;99.90;;;;;;5016530;28;20048;-75
2021/12/15 05:36:23;;;;;;;112.25;55.88;;;10.30;99.90;;;;;;5010479;28;20484;-74
2021/12/15 05:39:31;;;;;;;107.20;55.17;;;10.30;99.90;;;;;;5031166;28;20102;-75
2021/12/15 05:42:06;;;;;;;108.22;55.53;;;10.20;99.90;;;;;;5003838;28;20076;-75
2021/12/15 05:45:35;;;;;;;109.57;54.65;;;10.30;99.90;;;;;;4963854;28;20061;-75
2021/12/15 05:48:49;;;;;;;114.57;54.53;;;10.20;99.90;;;;;;5008617;28;20052;-75
2021/12/15 05:51:48;;;;;;;107.85;55.03;;;10.30;99.90;;;;;;4980881;28;20056;-75
2021/12/15 05:55:03;;;;;;;109.05;52.80;;;10.20;99.90;;;;;;4999706;28;20045;-75
2021/12/15 05:58:37;;;;;;;103.95;52.97;;;10.30;99.90;;;;;;5025789;28;20239;-75
2021/12/15 06:02:18;;;;;;;115.82;56.35;;;10.20;99.90;;;;;;5025028;28;20092;-75
2021/12/15 06:10:21;;;;;;;109.82;53.00;;;10.20;99.90;;;;;;5035935;28;20060;-75
2021/12/15 06:13:30;;;;;;;103.10;54.35;;;10.20;99.90;;;;;;5029272;28;20046;-75
2021/12/15 06:16:25;;;;;;;105.47;50.63;;;10.20;99.90;;;;;;5028794;28;20079;-74
2021/12/15 06:20:20;;;;;;;105.47;52.70;;;10.20;99.90;;;;;;4996195;28;20690;-74
2021/12/15 06:23:40;;;;;;;110.38;53.45;;;10.20;99.90;;;;;;5023614;28;20046;-75
2021/12/15 06:27:05;;;;;;;110.50;50.95;;;10.20;99.90;;;;;;5006814;28;20041;-75
2021/12/15 06:30:46;;;;;;;109.40;52.50;;;10.20;99.90;;;;;;5006287;28;20083;-75
2021/12/15 06:34:30;;;;;;;109.22;51.00;;;10.20;99.90;;;;;;4937080;29;20047;-75
2021/12/15 06:38:04;;;;;;;108.18;50.45;;;10.20;99.90;;;;;;4874138;29;20082;-75
2021/12/15 06:41:25;;;;;;;110.18;51.78;;;10.20;99.90;;;;;;4943536;29;20051;-74
2021/12/15 06:44:22;;;;;;;111.85;53.00;;;10.20;99.90;;;;;;4961034;28;20100;-74
2021/12/15 06:59:32;;;;;;;105.22;50.80;;;10.20;99.90;;;;;;5030339;28;20506;-76
2021/12/15 07:03:00;;;;;;;113.82;53.35;;;10.30;99.90;;;;;;5012947;28;20647;-74
2021/12/15 07:06:27;;;;;;;106.32;50.03;;;10.20;99.90;;;;;;4970372;28;20042;-74
2021/12/15 07:09:03;;;;;;;117.63;51.47;;;10.30;99.90;;;;;;5011174;28;20052;-75
2021/12/15 07:12:24;;;;;;;101.82;50.28;;;10.30;99.90;;;;;;5005095;28;20041;-74
2021/12/15 07:15:14;;;;;;;105.30;50.55;;;10.30;99.90;;;;;;4998313;28;20045;-75
2021/12/15 07:26:15;;;;;;;101.82;48.83;;;10.20;99.90;;;;;;4935910;28;20043;-75
2021/12/15 07:29:56;;;;;;;83.68;45.45;;;10.30;99.90;;;;;;4925618;28;20042;-75
2021/12/15 07:33:53;;;;;;;88.45;45.05;;;10.30;99.90;;;;;;5029335;28;20068;-74
2021/12/15 07:37:09;;;;;;;90.38;44.88;;;10.30;99.90;;;;;;5012039;28;20329;-74
2021/12/15 07:44:50;;;;;;;87.43;44.70;;;10.30;99.90;;;;;;4969721;28;20049;-74
2021/12/15 07:48:44;;;;;;;84.20;44.80;;;10.30;99.90;;;;;;5009590;28;20049;-74
2021/12/15 07:52:17;;;;;;;87.13;43.33;;;10.30;99.90;;;;;;4960227;28;20069;-75
2021/12/15 07:55:12;;;;;;;89.50;44.60;;;10.30;99.90;;;;;;5032491;28;20049;-74
2021/12/15 07:57:48;;;;;;;89.28;44.63;;;10.30;99.90;;;;;;5003166;28;20080;-74
2021/12/15 08:00:34;;;;;;;90.45;44.13;;;10.30;99.90;;;;;;5016229;28;20060;-74
2021/12/15 08:03:22;;;;;;;89.47;44.97;;;10.30;99.90;;;;;;5035324;28;20048;-74
2021/12/15 08:06:13;;;;;;;93.70;46.30;;;10.30;99.90;;;;;;4993382;28;20052;-74
2021/12/15 08:08:56;;;;;;;84.95;43.65;;;10.30;99.90;;;;;;5018097;28;20041;-74
2021/12/15 08:11:37;;;;;;;88.65;44.92;;;10.30;99.90;;;;;;5018657;28;20053;-74
2021/12/15 08:14:19;;;;;;;84.90;42.83;;;10.30;99.90;;;;;;5004331;28;20083;-74
2021/12/15 08:17:11;;;;;;;81.35;42.25;;;10.30;99.90;;;;;;5006940;28;20043;-73
2021/12/15 08:19:37;;;;;;;87.60;44.10;;;10.30;99.90;;;;;;5008026;28;20041;-73
2021/12/15 08:22:03;;;;;;;85.63;42.95;;;10.30;99.90;;;;;;5014234;28;20038;-73
2021/12/15 08:24:29;;;;;;;89.88;44.70;;;10.30;99.90;;;;;;5000526;28;20125;-73
2021/12/15 08:26:55;;;;;;;84.70;42.67;;;10.30;99.90;;;;;;5010029;28;20473;-73
2021/12/15 08:29:20;;;;;;;85.13;44.00;;;10.30;99.90;;;;;;4998837;28;20046;-73
2021/12/15 08:31:47;;;;;;;86.93;43.33;;;10.30;99.90;;;;;;4998360;28;20568;-73
2021/12/15 08:34:12;;;;;;;89.70;43.80;;;10.30;99.90;;;;;;5012344;28;20127;-73
2021/12/15 08:36:40;;;;;;;89.28;43.20;;;10.30;99.90;;;;;;5007831;28;20133;-72
2021/12/15 08:39:07;;;;;;;89.07;44.00;;;10.30;99.90;;;;;;5026020;28;20364;-73
2021/12/15 08:41:33;;;;;;;94.55;44.20;;;10.30;99.90;;;;;;5001512;28;20037;-73
2021/12/15 08:44:00;;;;;;;93.70;44.47;;;10.30;99.90;;;;;;5005487;28;20092;-73
2021/12/15 08:46:33;;;;;;;91.05;43.67;;;10.30;99.90;;;;;;5004214;28;20046;-73
2021/12/15 08:49:00;;;;;;;86.07;43.17;;;10.40;99.90;;;;;;5007311;28;20640;-73
2021/12/15 08:51:28;;;;;;;87.70;43.17;;;10.40;99.90;;;;;;5009065;28;20091;-73
2021/12/15 08:53:57;;;;;;;89.60;42.38;;;10.30;99.90;;;;;;5003429;28;20053;-73
2021/12/15 08:56:23;;;;;;;85.50;45.83;;;10.40;99.90;;;;;;5022026;28;20080;-73
2021/12/15 08:58:49;;;;;;;83.50;44.90;;;10.30;99.90;;;;;;5010566;28;20053;-74
2021/12/15 09:01:15;;;;;;;89.13;44.10;;;10.30;99.90;;;;;;5005353;28;20100;-73
2021/12/15 09:03:42;;;;;;;87.03;43.15;;;10.40;99.90;;;;;;5001958;28;20488;-74
2021/12/15 09:06:09;;;;;;;80.03;41.38;;;10.40;99.90;;;;;;5007105;28;20038;-73
2021/12/15 09:08:35;;;;;;;84.28;40.70;;;10.40;99.90;;;;;;5008187;28;20077;-74
2021/12/15 09:11:05;;;;;;;84.10;44.33;;;10.50;99.90;;;;;;5005091;28;20072;-73
2021/12/15 09:13:32;;;;;;;78.63;42.55;;;10.50;99.90;;;;;;5008789;28;20471;-74
2021/12/15 09:16:01;;;;;;;81.65;42.53;;;10.50;99.90;;;;;;5005458;28;20278;-73
2021/12/15 09:18:26;;;;;;;74.53;41.97;;;10.50;99.90;;;;;;5008158;28;20072;-73
2021/12/15 09:20:52;;;;;;;75.32;40.38;;;10.50;99.90;;;;;;5010624;28;20061;-73
2021/12/15 09:23:18;;;;;;;74.13;39.85;;;10.50;99.90;;;;;;5008414;28;20056;-74
2021/12/15 09:25:46;;;;;;;78.10;39.28;;;10.50;99.90;;;;;;5008082;28;20034;-73
2021/12/15 09:28:12;;;;;;;80.80;42.70;;;10.50;99.90;;;;;;4994194;28;20037;-73
2021/12/15 09:30:44;;;;;;;79.90;41.20;;;10.50;99.90;;;;;;5008298;28;20045;-73
2021/12/15 09:33:12;;;;;;;71.03;37.90;;;10.50;99.90;;;;;;5003973;28;20057;-74
2021/12/15 09:35:37;;;;;;;69.55;38.17;;;10.60;99.90;;;;;;4997566;28;20184;-73
2021/12/15 09:38:03;;;;;;;72.97;39.33;;;10.60;99.90;;;;;;5011865;28;20128;-73
2021/12/15 09:40:29;;;;;;;74.97;40.58;;;10.70;99.90;;;;;;5007121;28;20050;-73
2021/12/15 09:42:55;;;;;;;72.63;39.78;;;10.60;99.90;;;;;;5006440;28;20050;-73
2021/12/15 09:45:34;;;;;;;77.18;41.13;;;10.60;99.90;;;;;;4991522;28;20036;-74
2021/12/15 09:56:20;;;;;;;71.88;40.03;;;10.60;99.90;;;;;;5024388;28;20037;-74
2021/12/15 09:57:01;;;;;;;64.30;37.72;;;10.60;99.90;;;;;;5009842;28;20451;-73
2021/12/15 10:07:14;;;;;;;65.60;36.55;;;10.60;99.90;;;;;;5005784;28;20109;-73
2021/12/15 10:18:29;;;;;;;64.00;35.38;;;10.70;99.90;;;;;;5030835;28;20045;-74
2021/12/15 10:21:09;;;;;;;64.85;37.97;;;10.70;99.90;;;;;;5013015;28;20083;-74
2021/12/15 10:23:48;;;;;;;61.22;36.10;;;10.70;99.90;;;;;;5000783;28;20061;-74
2021/12/15 10:26:17;;;;;;;60.03;34.83;;;10.70;99.90;;;;;;5016134;28;20068;-74
2021/12/15 10:28:48;;;;;;;59.90;33.55;;;10.70;99.90;;;;;;4997046;28;20053;-74
2021/12/15 10:31:23;;;;;;;57.90;32.55;;;10.70;99.90;;;;;;4980231;28;20121;-74
2021/12/15 10:33:59;;;;;;;54.90;29.98;;;10.70;99.90;;;;;;4992207;28;20201;-74
2021/12/15 10:36:37;;;;;;;55.08;30.45;;;10.70;99.90;;;;;;5014080;28;20093;-74
2021/12/15 10:39:09;;;;;;;58.20;30.93;;;10.70;99.90;;;;;;5030225;28;20542;-74
2021/12/15 10:41:48;;;;;;;52.47;31.33;;;10.90;99.90;;;;;;4996387;28;20060;-74
2021/12/15 10:44:28;;;;;;;54.30;30.17;;;10.90;99.90;;;;;;5013600;28;20046;-74
2021/12/15 10:47:07;;;;;;;52.35;31.30;;;10.90;99.90;;;;;;4984552;28;20038;-74
2021/12/15 10:50:00;;;;;;;49.42;29.85;;;10.90;99.90;;;;;;5013828;28;20099;-74
2021/12/15 10:52:34;;;;;;;52.17;29.77;;;11.00;99.90;;;;;;5020215;28;20049;-74
2021/12/15 10:55:13;;;;;;;47.33;28.17;;;10.90;99.90;;;;;;4985069;28;20038;-74
2021/12/15 10:57:44;;;;;;;44.80;27.17;;;11.00;99.90;;;;;;4986580;28;20041;-74
2021/12/15 11:00:18;;;;;;;;;;;10.90;99.90;;;;;;4984547;28;20054;-74
2021/12/15 11:03:23;;;;;;;46.22;26.60;;;10.90;99.90;;;;;;4998917;28;19921;-74
2021/12/15 11:05:54;;;;;;;44.70;27.15;;;10.90;99.90;;;;;;5005907;28;20048;-74
2021/12/15 11:08:21;;;;;;;44.78;26.20;;;10.90;99.90;;;;;;4981745;28;20069;-74
2021/12/15 11:11:46;;;;;;;47.72;28.20;;;11.00;99.90;;;;;;4954830;28;20101;-73
2021/12/15 11:15:15;;;;;;;48.42;26.33;;;11.00;99.90;;;;;;5019565;28;20067;-74
2021/12/15 11:18:11;;;;;;;43.47;28.05;;;11.00;99.90;;;;;;5014822;28;20467;-73
2021/12/15 11:21:16;;;;;;;48.15;27.30;;;11.00;99.90;;;;;;5011594;28;20055;-73
2021/12/15 11:23:44;;;;;;;48.17;26.67;;;11.00;99.90;;;;;;4993746;28;20071;-73
2021/12/15 11:26:12;;;;;;;44.55;27.00;;;11.00;99.90;;;;;;5009277;28;20037;-74
2021/12/15 11:28:41;;;;;;;47.72;27.08;;;11.00;99.90;;;;;;5024308;28;20120;-73
2021/12/15 11:31:13;;;;;;;42.42;25.85;;;11.00;99.90;;;;;;5005505;28;20041;-73
2021/12/15 11:33:54;;;;;;;44.95;25.75;;;11.00;99.90;;;;;;5008797;28;20037;-73
2021/12/15 11:36:31;;;;;;;41.72;26.08;;;11.00;99.90;;;;;;5000792;28;20037;-73
2021/12/15 11:39:28;;;;;;;44.05;26.42;;;11.00;99.90;;;;;;4999751;28;20048;-74
2021/12/15 11:41:59;;;;;;;50.10;27.88;;;11.00;99.90;;;;;;4999631;28;20042;-80
2021/12/15 11:44:28;;;;;;;46.13;27.00;;;11.00;99.90;;;;;;4993081;28;20069;-73
2021/12/15 11:47:06;;;;;;;46.20;28.75;;;10.90;99.90;;;;;;4977783;28;20041;-73
2021/12/15 11:49:47;;;;;;;49.75;28.35;;;10.90;99.90;;;;;;5014332;28;20049;-73
2021/12/15 11:52:14;;;;;;;49.97;28.10;;;10.90;99.90;;;;;;4952837;28;20041;-73
2021/12/15 11:54:45;;;;;;;46.38;27.27;;;10.90;99.90;;;;;;5024874;28;20029;-73
2021/12/15 11:57:21;;;;;;;45.47;27.55;;;10.90;99.90;;;;;;5024707;28;20038;-73
2021/12/15 11:59:50;;;;;;;43.35;25.55;;;10.90;99.90;;;;;;5032445;28;20410;-73
2021/12/15 12:02:28;;;;;;;44.42;23.55;;;11.00;99.90;;;;;;5023487;28;20523;-73
2021/12/15 12:05:07;;;;;;;43.95;25.73;;;11.00;99.90;;;;;;5005653;28;21432;-73
2021/12/15 12:07:46;;;;;;;41.55;24.75;;;11.00;99.90;;;;;;5010776;28;20400;-73
2021/12/15 12:10:47;;;;;;;39.22;22.80;;;11.10;99.90;;;;;;5006109;28;20037;-74
2021/12/15 12:13:21;;;;;;;41.17;22.92;;;11.10;99.90;;;;;;5020626;28;20128;-74
2021/12/15 12:15:49;;;;;;;39.85;22.30;;;11.00;99.90;;;;;;5011794;28;20488;-73
2021/12/15 12:18:20;;;;;;;37.92;22.80;;;11.10;99.90;;;;;;5014414;28;20437;-74
2021/12/15 12:20:55;;;;;;;38.80;21.88;;;11.10;99.90;;;;;;5008775;28;20115;-74
2021/12/15 12:23:24;;;;;;;38.35;21.15;;;11.10;99.90;;;;;;5004506;28;20382;-74
2021/12/15 12:25:56;;;;;;;35.13;20.75;;;11.10;99.90;;;;;;5002763;28;20439;-74
2021/12/15 12:28:25;;;;;;;36.88;19.08;;;11.10;99.90;;;;;;5001963;28;20060;-74
2021/12/15 12:31:00;;;;;;;34.15;19.58;;;11.20;99.90;;;;;;5002264;28;20037;-74
2021/12/15 12:33:28;;;;;;;34.42;19.27;;;11.20;99.90;;;;;;4986740;28;20049;-74
2021/12/15 12:36:04;;;;;;;28.88;19.25;;;11.20;99.90;;;;;;4997920;28;20404;-74
2021/12/15 12:38:33;;;;;;;32.00;18.23;;;11.20;99.90;;;;;;5003660;28;20045;-74
2021/12/15 12:41:19;;;;;;;33.05;18.70;;;11.20;99.90;;;;;;5006224;28;20549;-74
2021/12/15 12:43:54;;;;;;;33.53;17.10;;;11.20;99.90;;;;;;4991176;28;20423;-74
2021/12/15 12:46:41;;;;;;;27.08;17.70;;;11.20;99.90;;;;;;5010104;28;20037;-74
2021/12/15 13:00:28;;;;;;;20.48;12.10;;;11.20;99.90;;;;;;4992721;28;20056;-74
2021/12/15 13:03:17;;;;;;;17.92;11.25;;;11.20;99.90;;;;;;5007096;28;20111;-74
2021/12/15 13:05:50;;;;;;;23.60;12.75;;;11.20;99.90;;;;;;5005031;28;20080;-74
2021/12/15 13:08:36;;;;;;;25.25;13.82;;;11.20;99.90;;;;;;5001410;28;20033;-74
2021/12/15 13:11:22;;;;;;;21.70;13.63;;;11.20;99.90;;;;;;4995238;28;20042;-74
2021/12/15 13:13:50;;;;;;;28.48;15.95;;;11.20;99.90;;;;;;5000848;28;20045;-74
2021/12/15 13:16:28;;;;;;;27.05;15.13;;;11.20;99.90;;;;;;5004210;28;20034;-74
2021/12/15 13:19:29;;;;;;;25.52;14.27;;;11.20;99.90;;;;;;5002458;28;20055;-74
2021/12/15 13:22:18;;;;;;;22.20;13.85;;;11.20;99.90;;;;;;5007736;28;20123;-74
2021/12/15 13:30:59;;;;;;;24.17;13.13;;;11.10;99.90;;;;;;5001829;28;20045;-74
2021/12/15 13:33:48;;;;;;;25.60;13.07;;;11.10;99.90;;;;;;4985540;28;20045;-74
2021/12/15 13:36:34;;;;;;;23.27;13.05;;;11.00;99.90;;;;;;4985513;28;20029;-74
2021/12/15 13:39:18;;;;;;;22.20;12.82;;;11.10;99.90;;;;;;5039103;28;20041;-74
2021/12/15 13:42:08;;;;;;;27.75;14.25;;;11.00;99.90;;;;;;5001661;28;20077;-74
2021/12/15 13:44:51;;;;;;;23.25;12.63;;;11.00;99.90;;;;;;5005137;28;20056;-74
2021/12/15 13:47:25;;;;;;;23.50;12.32;;;11.00;99.90;;;;;;5032926;28;20097;-74
2021/12/15 13:50:14;;;;;;;18.83;11.15;;;10.90;99.90;;;;;;4992259;28;20097;-74
2021/12/15 13:53:05;;;;;;;14.27;7.90;;;11.00;99.90;;;;;;5005999;28;20104;-74
2021/12/15 13:56:05;;;;;;;12.25;6.82;;;10.90;99.90;;;;;;5019357;28;20048;-74
2021/12/15 13:58:52;;;;;;;13.90;6.72;;;11.00;99.90;;;;;;5024009;28;20488;-74
2021/12/15 14:01:29;;;;;;;18.88;7.50;;;10.90;99.90;;;;;;4994564;28;20045;-74
2021/12/15 14:04:03;;;;;;;16.10;8.50;;;10.90;99.90;;;;;;4988687;28;20052;-74
2021/12/15 14:06:34;;;;;;;16.40;7.93;;;10.90;99.90;;;;;;5001198;28;20049;-74
2021/12/15 14:09:33;;;;;;;12.68;6.50;;;10.90;99.90;;;;;;5022668;28;20478;-74
2021/12/15 14:12:17;;;;;;;15.73;6.90;;;10.90;99.90;;;;;;5016700;28;20045;-74
2021/12/15 14:14:55;;;;;;;14.70;6.95;;;10.90;99.90;;;;;;5010599;28;20085;-74
2021/12/15 14:17:41;;;;;;;15.75;7.07;;;10.90;99.90;;;;;;5014807;28;20045;-74
2021/12/15 14:20:24;;;;;;;14.60;7.07;;;10.90;99.90;;;;;;4992563;28;20048;-73
2021/12/15 14:23:02;;;;;;;15.40;5.72;;;10.80;99.90;;;;;;5002539;28;20083;-73
2021/12/15 14:25:34;;;;;;;18.35;6.47;;;10.80;99.90;;;;;;5014310;28;20058;-74
2021/12/15 14:28:46;;;;;;;12.30;5.13;;;10.80;99.90;;;;;;5020650;28;20049;-74
2021/12/15 14:31:50;;;;;;;14.80;4.32;;;10.70;99.90;;;;;;4960383;29;20498;-74
2021/12/15 14:34:28;;;;;;;10.15;4.35;;;10.70;99.90;;;;;;5001223;28;20079;-74
2021/12/15 14:37:17;;;;;;;9.32;3.92;;;10.60;99.90;;;;;;4989234;28;20054;-74
2021/12/15 14:39:53;;;;;;;7.97;3.67;;;10.60;99.90;;;;;;4993431;28;20076;-74
2021/12/15 14:42:28;;;;;;;9.70;3.72;;;10.60;99.90;;;;;;4992713;28;20402;-73
2021/12/15 14:45:11;;;;;;;10.27;3.20;;;10.60;99.90;;;;;;5022158;28;20041;-74
2021/12/15 14:48:51;;;;;;;11.20;3.65;;;10.50;99.90;;;;;;4957493;28;20472;-74
2021/12/15 14:52:37;;;;;;;8.63;2.83;;;10.50;99.90;;;;;;5036127;28;20048;-74
2021/12/15 14:56:02;;;;;;;7.72;2.40;;;10.50;99.90;;;;;;4957009;29;20051;-74
2021/12/15 14:58:58;;;;;;;5.07;1.65;;;10.50;99.90;;;;;;5007739;28;20045;-74
2021/12/15 15:02:10;;;;;;;4.65;2.20;;;10.40;99.90;;;;;;5035944;28;20075;-74
2021/12/15 15:05:52;;;;;;;6.22;1.80;;;10.40;99.90;;;;;;4889975;29;20052;-74
2021/12/15 15:09:45;;;;;;;5.72;1.77;;;10.40;99.90;;;;;;4903667;29;20147;-74
2021/12/15 15:12:49;;;;;;;4.50;1.60;;;10.40;99.90;;;;;;4959036;28;20053;-74
2021/12/15 15:16:34;;;;;;;3.80;1.73;;;10.40;99.90;;;;;;5036929;28;20091;-74
2021/12/15 15:19:17;;;;;;;4.28;1.85;;;10.20;99.90;;;;;;5018014;28;20057;-74
2021/12/15 15:21:46;;;;;;;3.95;1.27;;;10.20;99.90;;;;;;4975622;28;20115;-74
2021/12/15 15:25:03;;;;;;;5.65;1.80;;;10.20;99.90;;;;;;5014997;28;20188;-74
2021/12/15 15:27:42;;;;;;;3.45;1.63;;;10.20;99.90;;;;;;5005610;28;20044;-74
2021/12/15 15:30:53;;;;;;;7.82;1.80;;;10.20;99.90;;;;;;4997763;28;20114;-74
2021/12/15 15:33:29;;;;;;;4.80;1.75;;;10.10;99.90;;;;;;5015391;28;21274;-74
2021/12/15 15:36:02;;;;;;;4.32;1.60;;;10.10;99.90;;;;;;5015212;28;20037;-74